createdAt,value
2017-12-15T00:01:06.868Z,2.40
2017-12-15T00:03:35.117Z,2.40
2017-12-15T00:06:02.603Z,3.10
2017-12-15T00:08:30.874Z,3.90
2017-12-15T00:10:59.183Z,2.80
2017-12-15T00:13:26.691Z,2.60
2017-12-15T00:15:54.174Z,2.63
2017-12-15T00:18:22.441Z,2.60
2017-12-15T00:20:49.926Z,3.00
2017-12-15T00:23:17.465Z,2.80
2017-12-15T00:25:45.714Z,2.33
2017-12-15T00:28:13.197Z,2.93
2017-12-15T00:30:41.484Z,3.10
2017-12-15T00:33:09.735Z,2.20
2017-12-15T00:35:37.357Z,2.50
2017-12-15T00:38:04.842Z,2.53
2017-12-15T00:40:32.338Z,3.27
2017-12-15T00:43:00.647Z,2.87
2017-12-15T00:45:28.162Z,2.77
2017-12-15T00:47:55.648Z,2.97
2017-12-15T00:50:23.134Z,2.83
2017-12-15T00:52:50.644Z,2.77
2017-12-15T00:55:18.894Z,2.83
2017-12-15T00:57:46.392Z,3.50
2017-12-15T01:00:14.654Z,2.90
2017-12-15T01:02:42.930Z,3.23
2017-12-15T01:05:11.187Z,3.70
2017-12-15T01:07:38.665Z,3.60
2017-12-15T01:10:06.956Z,4.07
2017-12-15T01:12:35.197Z,4.23
2017-12-15T01:15:02.699Z,4.27
2017-12-15T01:17:30.214Z,4.30
2017-12-15T01:19:57.723Z,4.53
2017-12-15T01:22:25.202Z,3.80
2017-12-15T01:24:52.690Z,4.70
2017-12-15T01:27:20.206Z,4.80
2017-12-15T01:29:47.686Z,5.07
2017-12-15T01:32:15.192Z,5.43
2017-12-15T01:34:43.445Z,5.23
2017-12-15T01:37:10.962Z,5.00
2017-12-15T01:39:38.446Z,5.33
2017-12-15T01:42:05.954Z,5.77
2017-12-15T01:44:34.207Z,5.77
2017-12-15T01:47:01.690Z,5.80
2017-12-15T01:49:29.959Z,5.63
2017-12-15T01:51:58.206Z,5.90
2017-12-15T01:54:25.707Z,6.13
2017-12-15T01:56:53.194Z,5.40
2017-12-15T01:59:20.703Z,5.43
2017-12-15T02:01:48.958Z,5.37
2017-12-15T02:04:16.471Z,5.90
2017-12-15T02:06:43.958Z,5.93
2017-12-15T02:09:11.455Z,6.27
2017-12-15T02:11:39.726Z,6.23
2017-12-15T02:14:07.210Z,6.63
2017-12-15T02:16:35.481Z,6.70
2017-12-15T02:19:03.738Z,6.83
2017-12-15T02:21:31.250Z,6.33
2017-12-15T02:23:58.741Z,6.73
2017-12-15T02:26:26.230Z,6.43
2017-12-15T02:28:54.495Z,6.67
2017-12-15T02:31:22.750Z,6.67
2017-12-15T02:33:50.254Z,6.43
2017-12-15T02:36:17.742Z,7.10
2017-12-15T02:38:45.270Z,6.17
2017-12-15T02:41:12.847Z,7.07
2017-12-15T02:43:40.354Z,6.93
2017-12-15T02:46:07.847Z,6.20
2017-12-15T02:48:35.334Z,6.30
2017-12-15T02:51:02.838Z,6.53
2017-12-15T02:53:30.325Z,5.67
2017-12-15T02:55:57.831Z,5.80
2017-12-15T02:58:25.326Z,6.00
2017-12-15T03:00:53.598Z,5.83
2017-12-15T03:03:21.098Z,5.73
2017-12-15T03:05:48.610Z,5.70
2017-12-15T03:08:16.095Z,4.80
2017-12-15T03:10:43.585Z,4.30
2017-12-15T03:13:11.101Z,4.43
2017-12-15T03:15:39.350Z,4.70
2017-12-15T03:18:06.852Z,3.70
2017-12-15T03:20:34.340Z,4.17
2017-12-15T03:23:01.850Z,4.50
2017-12-15T03:25:30.099Z,3.87
2017-12-15T03:27:57.692Z,3.90
2017-12-15T03:30:25.951Z,4.20
2017-12-15T03:32:54.207Z,3.70
2017-12-15T03:35:21.709Z,3.70
2017-12-15T03:37:49.193Z,3.43
2017-12-15T03:40:16.701Z,4.33
2017-12-15T03:42:44.964Z,4.50
2017-12-15T03:45:12.466Z,4.00
2017-12-15T03:47:39.949Z,4.30
2017-12-15T03:50:07.462Z,4.50
2017-12-15T03:52:35.728Z,4.43
2017-12-15T03:55:03.987Z,4.33
2017-12-15T03:57:31.486Z,3.90
2017-12-15T03:59:59.746Z,3.80
2017-12-15T04:02:28.010Z,4.90
2017-12-15T04:04:55.490Z,4.00
2017-12-15T04:07:23.772Z,4.47
2017-12-15T04:09:52.023Z,4.97
2017-12-15T04:12:19.524Z,5.00
2017-12-15T04:14:47.006Z,4.70
2017-12-15T04:17:14.490Z,4.50
2017-12-15T04:19:41.981Z,4.63
2017-12-15T04:22:10.234Z,4.60
2017-12-15T04:24:37.742Z,4.47
2017-12-15T04:27:05.235Z,3.80
2017-12-15T04:29:32.738Z,4.53
2017-12-15T04:32:00.994Z,4.17
2017-12-15T04:34:29.277Z,4.73
2017-12-15T04:36:57.530Z,5.10
2017-12-15T04:39:25.018Z,4.83
2017-12-15T04:41:53.286Z,5.30
2017-12-15T04:44:21.542Z,6.00
2017-12-15T04:46:49.044Z,5.20
2017-12-15T04:49:16.534Z,5.67
2017-12-15T04:51:44.038Z,5.47
2017-12-15T04:54:12.290Z,4.87
2017-12-15T04:56:39.807Z,4.73
2017-12-15T04:59:07.298Z,3.73
2017-12-15T05:01:34.781Z,4.23
2017-12-15T05:04:02.286Z,3.60
2017-12-15T05:06:29.778Z,4.90
2017-12-15T05:08:57.287Z,4.87
2017-12-15T05:11:24.773Z,3.77
2017-12-15T05:13:52.284Z,4.67
2017-12-15T05:16:20.534Z,4.17
2017-12-15T05:18:48.057Z,3.83
2017-12-15T05:21:15.542Z,3.40
2017-12-15T05:23:43.034Z,3.87
2017-12-15T05:26:10.530Z,3.50
2017-12-15T05:28:38.014Z,4.00
2017-12-15T05:31:05.514Z,4.10
2017-12-15T05:33:33.768Z,3.73
2017-12-15T05:36:01.279Z,4.07
2017-12-15T05:38:28.831Z,3.90
2017-12-15T05:40:56.354Z,5.20
2017-12-15T05:43:23.844Z,3.80
2017-12-15T05:45:51.326Z,4.20
2017-12-15T05:48:18.851Z,4.07
2017-12-15T05:50:47.102Z,3.60
2017-12-15T05:53:14.604Z,3.60
2017-12-15T05:55:42.086Z,3.80
2017-12-15T05:58:09.602Z,3.50
2017-12-15T06:00:37.851Z,2.80
2017-12-15T06:03:05.366Z,3.40
2017-12-15T06:05:32.853Z,2.90
2017-12-15T06:08:00.351Z,3.17
2017-12-15T06:10:28.621Z,2.57
2017-12-15T06:12:56.874Z,3.00
2017-12-15T06:15:24.482Z,2.70
2017-12-15T06:17:51.962Z,2.63
2017-12-15T06:20:19.462Z,2.47
2017-12-15T06:22:46.947Z,3.17
2017-12-15T06:25:15.214Z,4.27
2017-12-15T06:27:43.471Z,3.60
2017-12-15T06:30:10.958Z,2.53
2017-12-15T06:32:39.222Z,2.93
2017-12-15T06:35:07.472Z,3.10
2017-12-15T06:37:34.977Z,2.00
2017-12-15T06:40:02.478Z,2.50
2017-12-15T06:42:29.970Z,2.63
2017-12-15T06:44:58.238Z,2.50
2017-12-15T06:47:25.737Z,2.33
2017-12-15T06:49:53.287Z,2.40
2017-12-15T06:52:20.794Z,2.50
2017-12-15T06:54:48.278Z,3.20
2017-12-15T06:57:15.854Z,3.07
2017-12-15T06:59:44.110Z,3.77
2017-12-15T07:02:11.598Z,17.13
2017-12-15T07:04:39.113Z,14.30
2017-12-15T07:07:06.598Z,4.27
2017-12-15T07:09:34.884Z,4.87
2017-12-15T07:12:03.133Z,4.90
2017-12-15T07:14:30.639Z,4.40
2017-12-15T07:16:58.123Z,4.60
2017-12-15T07:19:25.622Z,4.13
2017-12-15T07:21:53.873Z,3.73
2017-12-15T07:24:21.374Z,3.50
2017-12-15T07:26:49.671Z,3.87
2017-12-15T07:29:17.171Z,3.60
2017-12-15T07:31:44.664Z,2.80
2017-12-15T07:34:12.922Z,3.67
2017-12-15T07:36:40.425Z,4.00
2017-12-15T07:39:07.917Z,2.93
2017-12-15T07:41:35.414Z,4.03
2017-12-15T07:44:03.665Z,2.77
2017-12-15T07:46:31.227Z,3.40
2017-12-15T07:48:58.719Z,2.67
2017-12-15T07:51:26.283Z,4.80
2017-12-15T07:53:53.778Z,2.70
2017-12-15T07:56:21.257Z,3.03
2017-12-15T07:58:48.876Z,2.17
2017-12-15T08:01:16.390Z,2.00
2017-12-15T08:03:43.970Z,3.10
2017-12-15T08:06:12.218Z,2.40
2017-12-15T08:08:39.723Z,2.20
2017-12-15T08:11:07.210Z,2.63
2017-12-15T08:13:34.724Z,2.07
2017-12-15T08:16:02.227Z,2.90
2017-12-15T08:18:29.831Z,2.57
2017-12-15T08:20:58.116Z,2.07
2017-12-15T08:23:26.418Z,2.43
2017-12-15T08:25:53.927Z,2.50
2017-12-15T08:28:21.433Z,2.00
2017-12-15T08:30:48.978Z,2.67
2017-12-15T08:33:17.230Z,2.10
2017-12-15T08:35:44.746Z,1.87
2017-12-15T08:38:12.235Z,2.90
2017-12-15T08:40:39.738Z,2.80
2017-12-15T08:43:07.222Z,2.33
2017-12-15T08:45:34.717Z,3.07
2017-12-15T08:48:02.210Z,2.50
2017-12-15T08:50:29.714Z,2.13
2017-12-15T08:52:57.202Z,2.20
2017-12-15T08:55:25.454Z,2.43
2017-12-15T08:57:52.950Z,2.40
2017-12-15T09:00:21.202Z,2.10
2017-12-15T09:02:48.710Z,2.10
2017-12-15T09:05:16.246Z,2.80
2017-12-15T09:07:44.510Z,2.33
2017-12-15T09:10:12.763Z,3.33
2017-12-15T09:12:40.282Z,3.67
2017-12-15T09:15:07.772Z,3.23
2017-12-15T09:17:35.277Z,2.13
2017-12-15T09:20:03.527Z,3.00
2017-12-15T09:22:31.038Z,2.17
2017-12-15T09:24:58.534Z,3.13
2017-12-15T09:27:26.042Z,2.50
2017-12-15T09:29:53.564Z,3.60
2017-12-15T09:32:21.050Z,2.50
2017-12-15T09:34:48.554Z,2.20
2017-12-15T09:37:16.070Z,19.70
2017-12-15T09:39:43.578Z,2.83
2017-12-15T09:42:11.058Z,2.50
2017-12-15T09:44:38.664Z,2.83
2017-12-15T09:47:06.206Z,3.60
2017-12-15T09:49:33.769Z,2.70
2017-12-15T09:52:01.325Z,2.47
2017-12-15T09:54:29.810Z,2.33
2017-12-15T09:56:57.385Z,2.50
2017-12-15T09:59:24.933Z,2.57
2017-12-15T10:01:52.434Z,3.23
2017-12-15T10:04:19.973Z,3.20
2017-12-15T10:06:47.511Z,2.37
2017-12-15T10:09:15.004Z,3.50
2017-12-15T10:11:42.543Z,3.30
2017-12-15T10:14:10.042Z,2.93
2017-12-15T10:16:37.596Z,3.90
2017-12-15T10:19:05.118Z,3.77
2017-12-15T10:21:32.619Z,3.20
2017-12-15T10:24:00.097Z,3.57
2017-12-15T10:26:28.366Z,3.60
2017-12-15T10:28:55.846Z,2.53
2017-12-15T10:31:24.114Z,3.30
2017-12-15T10:33:52.377Z,3.03
2017-12-15T10:36:19.930Z,3.73
2017-12-15T10:38:47.473Z,3.83
2017-12-15T10:41:14.973Z,3.33
2017-12-15T10:43:43.222Z,3.40
2017-12-15T10:46:10.721Z,3.40
2017-12-15T10:48:38.207Z,3.37
2017-12-15T10:51:05.714Z,3.43
2017-12-15T10:53:34.008Z,2.97
2017-12-15T10:56:59.386Z,3.40
2017-12-15T10:59:26.873Z,5.43
2017-12-15T11:01:55.142Z,4.03
2017-12-15T11:04:23.401Z,3.60
2017-12-15T11:06:50.894Z,3.40
2017-12-15T11:09:19.142Z,3.00
2017-12-15T11:11:46.642Z,2.90
2017-12-15T11:14:14.158Z,3.43
2017-12-15T11:16:41.671Z,3.33
2017-12-15T11:19:09.174Z,2.50
2017-12-15T11:21:36.691Z,3.00
2017-12-15T11:24:04.198Z,2.90
2017-12-15T11:26:31.677Z,3.20
2017-12-15T11:28:59.943Z,3.87
2017-12-15T11:31:28.222Z,4.43
2017-12-15T11:33:55.779Z,3.23
2017-12-15T11:36:24.025Z,3.73
2017-12-15T11:38:51.519Z,4.20
2017-12-15T11:41:19.854Z,5.00
2017-12-15T11:43:47.377Z,3.70
2017-12-15T11:46:14.878Z,4.30
2017-12-15T11:48:42.374Z,3.53
2017-12-15T11:51:10.647Z,3.30
2017-12-15T11:53:38.922Z,3.37
2017-12-15T11:56:07.195Z,3.30
2017-12-15T11:58:35.450Z,3.23
2017-12-15T12:01:02.945Z,3.27
2017-12-15T12:03:31.197Z,3.40
2017-12-15T12:05:58.718Z,3.97
2017-12-15T12:08:26.201Z,3.47
2017-12-15T12:10:53.695Z,3.43
2017-12-15T12:13:21.962Z,4.93
2017-12-15T12:15:50.223Z,2.97
2017-12-15T12:18:17.754Z,2.90
2017-12-15T12:20:45.237Z,3.07
2017-12-15T12:23:12.736Z,2.87
2017-12-15T12:25:40.395Z,3.47
2017-12-15T12:28:08.704Z,2.30
2017-12-15T12:30:36.202Z,2.33
2017-12-15T12:33:03.758Z,1.83
2017-12-15T12:35:31.318Z,1.73
2017-12-15T12:37:58.805Z,1.63
2017-12-15T12:40:27.078Z,2.03
2017-12-15T12:42:55.335Z,2.40
2017-12-15T12:45:22.836Z,2.50
2017-12-15T12:47:50.317Z,2.97
2017-12-15T12:50:17.826Z,3.60
2017-12-15T12:52:46.077Z,2.70
2017-12-15T12:55:13.588Z,2.30
2017-12-15T12:57:41.202Z,2.77
2017-12-15T13:00:09.499Z,2.50
2017-12-15T13:02:37.792Z,2.67
2017-12-15T13:05:06.043Z,2.63
2017-12-15T13:07:34.342Z,3.53
2017-12-15T13:10:02.605Z,11.40
2017-12-15T13:12:30.886Z,2.70
2017-12-15T13:14:59.175Z,2.90
2017-12-15T13:17:26.731Z,3.90
2017-12-15T13:19:54.988Z,2.90
2017-12-15T13:22:22.474Z,3.37
2017-12-15T13:24:49.974Z,2.90
2017-12-15T13:27:17.462Z,3.40
2017-12-15T13:29:44.965Z,3.03
2017-12-15T13:32:12.454Z,2.20
2017-12-15T13:34:39.958Z,4.43
2017-12-15T13:37:08.217Z,3.60
2017-12-15T13:39:36.493Z,2.97
2017-12-15T13:42:04.754Z,3.80
2017-12-15T13:44:32.264Z,2.97
2017-12-15T13:46:59.750Z,8.70
2017-12-15T13:49:27.277Z,3.60
2017-12-15T13:51:54.769Z,2.77
2017-12-15T13:54:22.250Z,3.07
2017-12-15T13:56:49.756Z,2.30
2017-12-15T13:59:17.250Z,2.90
2017-12-15T14:01:44.753Z,9.53
2017-12-15T14:04:13.001Z,3.60
2017-12-15T14:06:40.514Z,3.60
2017-12-15T14:09:08.011Z,2.60
2017-12-15T14:11:35.538Z,3.20
2017-12-15T14:14:03.021Z,2.80
2017-12-15T14:16:30.526Z,3.03
2017-12-15T14:18:58.920Z,2.63
2017-12-15T14:21:26.431Z,11.17
2017-12-15T14:23:54.004Z,3.00
2017-12-15T14:26:22.270Z,2.90
2017-12-15T14:28:49.782Z,4.27
2017-12-15T14:31:17.279Z,3.40
2017-12-15T14:33:44.785Z,2.67
2017-12-15T14:36:12.290Z,3.10
2017-12-15T14:38:39.797Z,4.20
2017-12-15T14:41:07.321Z,12.80
2017-12-15T14:43:34.838Z,3.70
2017-12-15T14:46:02.333Z,3.97
2017-12-15T14:48:29.898Z,3.37
2017-12-15T14:50:57.395Z,3.37
2017-12-15T14:53:24.913Z,3.93
2017-12-15T14:55:52.406Z,3.70
2017-12-15T14:58:20.721Z,2.83
2017-12-15T15:00:48.260Z,3.60
2017-12-15T15:03:16.396Z,3.03
2017-12-15T15:05:43.934Z,3.37
2017-12-15T15:08:11.598Z,3.87
2017-12-15T15:10:39.102Z,5.70
2017-12-15T15:13:07.535Z,3.73
2017-12-15T15:15:35.162Z,4.27
2017-12-15T15:18:03.418Z,3.73
2017-12-15T15:20:32.710Z,3.30
2017-12-15T15:23:00.997Z,11.97
2017-12-15T15:25:29.259Z,6.97
2017-12-15T15:27:57.512Z,4.13
2017-12-15T15:30:25.018Z,11.00
2017-12-15T15:32:52.507Z,3.53
2017-12-15T15:35:20.013Z,3.30
2017-12-15T15:37:48.273Z,3.20
2017-12-15T15:40:15.803Z,5.00
2017-12-15T15:42:43.349Z,3.67
2017-12-15T15:45:10.910Z,3.37
2017-12-15T15:47:38.414Z,3.43
2017-12-15T15:50:06.675Z,4.03
2017-12-15T15:52:34.176Z,8.53
2017-12-15T15:55:02.457Z,5.00
2017-12-15T15:57:29.963Z,8.40
2017-12-15T15:59:57.453Z,14.03
2017-12-15T16:02:25.735Z,46.07
2017-12-15T16:04:54.069Z,4.13
2017-12-15T16:07:21.580Z,9.73
2017-12-15T16:09:49.840Z,10.13
2017-12-15T16:12:18.103Z,20.63
2017-12-15T16:14:45.610Z,3.87
2017-12-15T16:17:13.104Z,2.87
2017-12-15T16:19:40.598Z,2.90
2017-12-15T16:22:08.859Z,3.13
2017-12-15T16:24:36.447Z,3.23
2017-12-15T16:27:03.954Z,2.97
2017-12-15T16:29:31.470Z,5.70
2017-12-15T16:31:58.955Z,2.70
2017-12-15T16:34:26.448Z,3.90
2017-12-15T16:36:54.000Z,4.70
2017-12-15T16:39:21.495Z,9.67
2017-12-15T16:41:49.902Z,2.90
2017-12-15T16:44:17.408Z,3.83
2017-12-15T16:46:44.902Z,2.63
2017-12-15T16:49:12.394Z,3.63
2017-12-15T16:51:39.954Z,3.27
2017-12-15T16:54:07.434Z,2.13
2017-12-15T16:56:34.921Z,3.60
2017-12-15T16:59:03.210Z,2.37
2017-12-15T17:01:31.503Z,3.53
2017-12-15T17:03:59.026Z,3.33
2017-12-15T17:06:26.586Z,2.57
2017-12-15T17:08:54.114Z,2.77
2017-12-15T17:11:21.609Z,4.10
2017-12-15T17:13:49.905Z,4.40
2017-12-15T17:16:18.986Z,4.77
2017-12-15T17:18:47.263Z,4.40
2017-12-15T17:21:15.562Z,5.03
2017-12-15T17:23:43.050Z,5.13
2017-12-15T17:26:10.572Z,6.30
2017-12-15T17:28:38.091Z,5.77
2017-12-15T17:31:05.609Z,5.67
2017-12-15T17:33:33.143Z,4.90
2017-12-15T17:36:01.463Z,4.93
2017-12-15T17:38:28.946Z,4.57
2017-12-15T17:40:56.475Z,5.67
2017-12-15T17:43:23.998Z,6.27
2017-12-15T17:45:52.284Z,7.83
2017-12-15T17:48:19.850Z,7.70
2017-12-15T17:50:47.367Z,7.73
2017-12-15T17:55:59.308Z,8.93
2017-12-15T17:58:27.578Z,7.07
2017-12-15T18:00:55.850Z,8.00
2017-12-15T18:03:24.138Z,6.00
2017-12-15T18:05:52.426Z,5.10
2017-12-15T18:08:19.922Z,4.73
2017-12-15T18:10:47.421Z,4.80
2017-12-15T18:13:15.703Z,4.43
2017-12-15T18:15:43.978Z,4.50
2017-12-15T18:18:12.234Z,4.20
2017-12-15T18:20:39.848Z,4.23
2017-12-15T18:23:07.342Z,3.70
2017-12-15T18:25:34.837Z,3.13
2017-12-15T18:28:03.149Z,3.57
2017-12-15T18:30:30.641Z,5.03
2017-12-15T18:32:58.147Z,5.10
2017-12-15T18:35:25.688Z,6.33
2017-12-15T18:37:54.004Z,5.87
2017-12-15T18:40:21.533Z,5.83
2017-12-15T18:42:49.866Z,5.13
2017-12-15T18:45:17.377Z,5.73
2017-12-15T18:47:44.861Z,6.23
2017-12-15T18:50:12.374Z,6.33
2017-12-15T18:52:40.638Z,6.53
2017-12-15T18:55:08.147Z,4.93
2017-12-15T18:57:35.666Z,5.03
2017-12-15T19:00:03.962Z,5.00
2017-12-15T19:02:32.212Z,5.33
2017-12-15T19:04:59.806Z,5.97
2017-12-15T19:07:27.293Z,6.03
2017-12-15T19:09:54.781Z,5.87
2017-12-15T19:12:22.279Z,7.03
2017-12-15T19:14:49.797Z,6.20
2017-12-15T19:17:17.334Z,6.13
2017-12-15T19:19:44.845Z,9.10
2017-12-15T19:22:13.119Z,5.80
2017-12-15T19:24:41.389Z,5.17
2017-12-15T19:27:09.663Z,5.10
2017-12-15T19:29:37.923Z,4.90
2017-12-15T19:32:05.438Z,5.20
2017-12-15T19:34:32.939Z,5.43
2017-12-15T19:37:00.426Z,5.27
2017-12-15T19:39:28.694Z,6.00
2017-12-15T19:41:56.185Z,6.33
2017-12-15T19:44:23.702Z,6.50
2017-12-15T19:46:51.202Z,6.50
2017-12-15T19:49:18.694Z,6.87
2017-12-15T19:51:46.199Z,7.20
2017-12-15T19:54:14.452Z,7.57
2017-12-15T19:56:41.959Z,7.67
2017-12-15T19:59:09.438Z,7.13
2017-12-15T20:01:36.969Z,8.33
2017-12-15T20:04:04.466Z,12.40
2017-12-15T20:06:31.986Z,31.10
2017-12-15T20:08:59.505Z,33.33
2017-12-15T20:11:27.000Z,15.50
2017-12-15T20:13:54.517Z,11.20
2017-12-15T20:16:22.046Z,8.80
2017-12-15T20:18:49.559Z,6.57
2017-12-15T20:21:17.847Z,8.23
2017-12-15T20:23:46.107Z,6.73
2017-12-15T20:26:14.395Z,7.13
2017-12-15T20:28:41.899Z,7.10
2017-12-15T20:31:09.406Z,7.50
2017-12-15T20:33:37.661Z,7.80
2017-12-15T20:36:05.162Z,9.20
2017-12-15T20:38:32.646Z,7.00
2017-12-15T20:41:00.179Z,8.43
2017-12-15T20:43:27.745Z,7.57
2017-12-15T20:45:55.239Z,7.40
2017-12-15T20:48:22.754Z,8.40
2017-12-15T20:50:50.262Z,8.67
2017-12-15T20:53:17.841Z,9.97
2017-12-15T20:55:45.352Z,11.83
2017-12-15T20:58:12.930Z,13.80
2017-12-15T21:00:40.430Z,19.67
2017-12-15T21:03:08.854Z,14.30
2017-12-15T21:05:36.346Z,14.70
2017-12-15T21:08:03.984Z,17.40
2017-12-15T21:10:31.526Z,25.93
2017-12-15T21:12:59.148Z,24.63
2017-12-15T21:15:27.539Z,18.60
2017-12-15T21:17:55.042Z,17.50
2017-12-15T21:20:22.561Z,18.17
2017-12-15T21:22:50.830Z,18.60
2017-12-15T21:25:19.186Z,17.10
2017-12-15T21:27:46.683Z,13.90
2017-12-15T21:30:14.174Z,11.70
2017-12-15T21:32:41.678Z,12.03
2017-12-15T21:35:09.944Z,11.70
2017-12-15T21:37:37.457Z,11.20
2017-12-15T21:40:04.965Z,11.40
2017-12-15T21:42:32.504Z,11.33
2017-12-15T21:45:00.023Z,21.50
2017-12-15T21:47:27.614Z,11.90
2017-12-15T21:49:55.110Z,12.37
2017-12-15T21:52:23.430Z,12.50
2017-12-15T21:54:50.982Z,11.37
2017-12-15T21:57:18.492Z,38.43
2017-12-15T21:59:46.005Z,14.63
2017-12-15T22:02:13.501Z,62.37
2017-12-15T22:04:41.921Z,31.70
2017-12-15T22:07:10.242Z,41.43
2017-12-15T22:09:37.786Z,14.00
2017-12-15T22:12:05.320Z,13.07
2017-12-15T22:14:33.580Z,13.77
2017-12-15T22:17:01.869Z,13.97
2017-12-15T22:19:30.143Z,13.20
2017-12-15T22:21:58.431Z,12.63
